createdAt,value
2022-10-03T00:00:22.321Z,8.42
2022-10-03T00:03:24.003Z,8.44
2022-10-03T00:06:01.182Z,8.42
2022-10-03T00:09:01.784Z,8.42
2022-10-03T00:11:31.118Z,8.43
2022-10-03T00:14:01.234Z,8.42
2022-10-03T00:16:33.885Z,8.43
2022-10-03T00:19:20.294Z,8.44
2022-10-03T00:22:32.171Z,8.40
2022-10-03T00:25:39.902Z,8.39
2022-10-03T00:28:40.704Z,8.35
2022-10-03T00:31:24.839Z,8.34
2022-10-03T00:34:10.889Z,8.36
2022-10-03T00:36:50.459Z,8.34
2022-10-03T00:39:42.845Z,8.31
2022-10-03T00:42:40.442Z,8.28
2022-10-03T00:45:15.955Z,8.26
2022-10-03T00:47:49.417Z,8.27
2022-10-03T00:50:26.843Z,8.27
2022-10-03T00:53:24.632Z,8.26
2022-10-03T00:56:31.822Z,8.23
2022-10-03T00:59:19.654Z,8.19
2022-10-03T01:01:48.390Z,8.15
2022-10-03T01:04:33.946Z,8.14
2022-10-03T01:07:42.430Z,8.11
2022-10-03T01:10:50.231Z,8.05
2022-10-03T01:13:43.049Z,8.03
2022-10-03T01:16:15.577Z,7.98
2022-10-03T01:18:57.554Z,7.95
2022-10-03T01:21:27.190Z,7.94
2022-10-03T01:24:14.642Z,7.92
2022-10-03T01:26:56.138Z,7.92
2022-10-03T01:29:50.804Z,7.90
2022-10-03T01:32:20.337Z,7.87
2022-10-03T01:35:19.508Z,7.86
2022-10-03T01:37:55.244Z,7.84
2022-10-03T01:40:29.435Z,7.81
2022-10-03T01:43:09.821Z,7.76
2022-10-03T01:45:46.413Z,7.70
2022-10-03T01:48:21.879Z,7.67
2022-10-03T01:51:08.900Z,7.65
2022-10-03T01:53:59.833Z,7.68
2022-10-03T01:56:42.822Z,7.68
2022-10-03T01:59:47.512Z,7.64
2022-10-03T02:02:51.549Z,7.63
2022-10-03T02:05:24.272Z,7.64
2022-10-03T02:08:14.730Z,7.57
2022-10-03T02:10:50.299Z,7.55
2022-10-03T02:13:28.922Z,7.51
2022-10-03T02:16:10.973Z,7.44
2022-10-03T02:18:48.787Z,7.45
2022-10-03T02:21:20.951Z,7.37
2022-10-03T02:23:49.898Z,7.37
2022-10-03T02:27:11.637Z,7.35
2022-10-03T02:29:59.344Z,7.31
2022-10-03T02:32:28.768Z,7.25
2022-10-03T02:35:32.413Z,7.21
2022-10-03T02:38:17.713Z,7.14
2022-10-03T02:40:50.837Z,7.09
2022-10-03T02:43:42.043Z,7.06
2022-10-03T02:46:20.660Z,7.06
2022-10-03T02:49:07.666Z,7.04
2022-10-03T02:51:57.326Z,7.04
2022-10-03T02:54:48.778Z,6.99
2022-10-03T02:57:39.882Z,6.95
2022-10-03T03:00:20.984Z,6.97
2022-10-03T03:03:24.842Z,7.00
2022-10-03T03:06:25.370Z,6.97
2022-10-03T03:09:17.344Z,6.93
2022-10-03T03:12:06.979Z,6.90
2022-10-03T03:14:55.474Z,6.88
2022-10-03T03:17:28.037Z,6.79
2022-10-03T03:20:17.355Z,6.77
2022-10-03T03:22:54.199Z,6.77
2022-10-03T03:25:36.199Z,6.72
2022-10-03T03:28:40.593Z,6.68
2022-10-03T03:31:15.181Z,6.65
2022-10-03T03:33:54.149Z,6.56
2022-10-03T03:36:34.183Z,6.53
2022-10-03T03:39:05.949Z,6.53
2022-10-03T03:41:51.480Z,6.58
2022-10-03T03:44:39.564Z,6.54
2022-10-03T03:47:14.686Z,6.53
2022-10-03T03:49:46.938Z,6.50
2022-10-03T03:52:43.991Z,6.52
2022-10-03T03:55:15.198Z,6.47
2022-10-03T03:57:59.938Z,6.45
2022-10-03T04:00:48.997Z,6.46
2022-10-03T04:03:46.425Z,6.45
2022-10-03T04:06:40.796Z,6.41
2022-10-03T04:09:28.902Z,6.37
2022-10-03T04:12:16.561Z,6.33
2022-10-03T04:14:56.999Z,6.31
2022-10-03T04:18:11.281Z,6.28
2022-10-03T04:21:20.889Z,6.27
2022-10-03T04:24:04.939Z,6.29
2022-10-03T04:26:58.661Z,6.24
2022-10-03T04:29:36.929Z,6.20
2022-10-03T04:32:17.309Z,6.16
2022-10-03T04:34:50.125Z,6.13
2022-10-03T04:37:48.980Z,6.07
2022-10-03T04:40:30.704Z,6.01
2022-10-03T04:43:24.241Z,6.02
2022-10-03T04:46:16.433Z,6.02
2022-10-03T04:48:56.000Z,5.99
2022-10-03T04:51:41.830Z,5.98
2022-10-03T04:54:30.290Z,5.95
2022-10-03T04:57:38.577Z,5.96
2022-10-03T05:00:25.306Z,5.95
2022-10-03T05:03:10.919Z,5.94
2022-10-03T05:06:11.141Z,5.92
2022-10-03T05:09:04.564Z,5.87
2022-10-03T05:11:40.004Z,5.83
2022-10-03T05:14:16.629Z,5.83
2022-10-03T05:17:09.544Z,5.83
2022-10-03T05:19:47.253Z,5.82
2022-10-03T05:22:42.793Z,5.80
2022-10-03T05:25:41.189Z,5.78
2022-10-03T05:28:26.324Z,5.81
2022-10-03T05:31:04.368Z,5.91
2022-10-03T05:33:45.814Z,5.91
2022-10-03T05:36:24.539Z,5.89
2022-10-03T05:38:59.766Z,5.86
2022-10-03T05:41:30.778Z,5.81
2022-10-03T05:44:11.416Z,5.78
2022-10-03T05:47:28.289Z,5.83
2022-10-03T05:50:13.324Z,5.88
2022-10-03T05:52:59.178Z,5.92
2022-10-03T05:55:45.813Z,5.97
2022-10-03T05:58:57.157Z,5.98
2022-10-03T06:01:51.425Z,6.04
2022-10-03T06:04:59.033Z,6.13
2022-10-03T06:07:28.164Z,6.19
2022-10-03T06:10:06.986Z,6.24
2022-10-03T06:12:58.587Z,6.28
2022-10-03T06:15:39.501Z,6.33
2022-10-03T06:18:47.374Z,6.44
2022-10-03T06:21:42.985Z,6.58
2022-10-03T06:24:28.362Z,6.69
2022-10-03T06:27:43.253Z,6.83
2022-10-03T06:30:22.061Z,6.99
2022-10-03T06:32:54.618Z,7.13
2022-10-03T06:35:52.509Z,7.28
2022-10-03T06:38:46.385Z,7.43
2022-10-03T06:41:45.611Z,7.66
2022-10-03T06:44:24.212Z,7.85
2022-10-03T06:47:12.469Z,8.06
2022-10-03T06:49:51.183Z,8.25
2022-10-03T06:52:30.385Z,8.37
2022-10-03T06:55:12.013Z,8.54
2022-10-03T06:57:58.991Z,8.73
2022-10-03T07:01:00.807Z,8.94
2022-10-03T07:03:55.967Z,9.10
2022-10-03T07:06:22.417Z,9.25
2022-10-03T07:09:19.501Z,9.39
2022-10-03T07:11:48.865Z,9.51
2022-10-03T07:14:42.143Z,9.65
2022-10-03T07:17:30.093Z,9.74
2022-10-03T07:20:21.953Z,9.83
2022-10-03T07:23:25.430Z,9.93
2022-10-03T07:26:28.858Z,10.01
2022-10-03T07:29:27.190Z,10.13
2022-10-03T07:32:15.736Z,10.27
2022-10-03T07:35:07.581Z,10.39
2022-10-03T07:37:58.698Z,10.51
2022-10-03T07:40:52.982Z,10.76
2022-10-03T07:43:37.405Z,11.02
2022-10-03T07:46:31.325Z,11.36
2022-10-03T07:49:26.332Z,11.74
2022-10-03T07:52:00.786Z,12.05
2022-10-03T07:54:53.783Z,12.31
2022-10-03T07:57:45.777Z,12.36
2022-10-03T08:00:17.614Z,12.46
2022-10-03T08:03:17.760Z,12.57
2022-10-03T08:06:07.869Z,12.65
2022-10-03T08:09:07.089Z,12.67
2022-10-03T08:12:03.383Z,12.70
2022-10-03T08:15:05.335Z,12.78
2022-10-03T08:17:52.821Z,12.86
2022-10-03T08:20:38.136Z,12.99
2022-10-03T08:23:35.491Z,13.13
2022-10-03T08:26:32.721Z,13.28
2022-10-03T08:29:09.090Z,13.43
2022-10-03T08:31:48.873Z,13.53
2022-10-03T08:34:39.173Z,13.62
2022-10-03T08:37:31.489Z,13.71
2022-10-03T08:40:25.446Z,13.79
2022-10-03T08:43:12.916Z,13.91
2022-10-03T08:46:07.692Z,13.93
2022-10-03T08:49:17.809Z,13.99
2022-10-03T08:51:59.523Z,14.03
2022-10-03T08:54:56.404Z,14.16
2022-10-03T08:58:07.902Z,14.18
2022-10-03T09:00:52.823Z,14.33
2022-10-03T09:03:48.506Z,14.53
2022-10-03T09:07:05.028Z,14.65
2022-10-03T09:09:41.272Z,14.72
2022-10-03T09:13:02.327Z,14.92
2022-10-03T09:15:52.567Z,15.13
2022-10-03T09:18:56.541Z,15.28
2022-10-03T09:21:38.137Z,15.32
2022-10-03T09:24:32.554Z,15.35
2022-10-03T09:27:05.000Z,15.37
2022-10-03T09:30:15.439Z,15.50
2022-10-03T09:32:54.749Z,15.53
2022-10-03T09:35:59.148Z,15.64
2022-10-03T09:38:51.264Z,15.75
2022-10-03T09:41:37.983Z,15.82
2022-10-03T09:44:35.274Z,15.94
2022-10-03T09:47:33.723Z,15.99
2022-10-03T09:50:22.036Z,16.16
2022-10-03T09:53:27.028Z,16.30
2022-10-03T09:56:47.969Z,16.30
2022-10-03T09:59:51.602Z,16.38
2022-10-03T10:02:49.073Z,16.58
2022-10-03T10:05:27.587Z,16.63
2022-10-03T10:08:00.184Z,16.70
2022-10-03T10:11:05.329Z,16.87
2022-10-03T10:14:07.990Z,17.14
2022-10-03T10:16:34.823Z,17.22
2022-10-03T10:19:19.710Z,17.30
2022-10-03T10:22:39.405Z,17.38
2022-10-03T10:25:20.445Z,17.55
2022-10-03T10:28:14.322Z,17.68
2022-10-03T10:31:06.841Z,17.80
2022-10-03T10:34:21.393Z,17.79
2022-10-03T10:36:50.555Z,17.74
2022-10-03T10:39:29.287Z,17.73
2022-10-03T10:42:01.778Z,17.58
2022-10-03T10:44:43.471Z,17.65
2022-10-03T10:47:48.833Z,17.79
2022-10-03T10:50:33.898Z,17.83
2022-10-03T10:53:09.373Z,17.68
2022-10-03T10:55:54.166Z,17.75
2022-10-03T10:58:38.859Z,17.82
2022-10-03T11:01:50.331Z,17.97
2022-10-03T11:05:01.872Z,18.00
2022-10-03T11:07:59.169Z,18.04
2022-10-03T11:10:48.150Z,18.02
2022-10-03T11:13:35.727Z,18.03
2022-10-03T11:16:27.166Z,17.99
2022-10-03T11:19:29.803Z,18.05
2022-10-03T11:22:00.117Z,18.17
2022-10-03T11:24:45.554Z,18.30
2022-10-03T11:27:18.076Z,18.34
2022-10-03T11:30:15.517Z,18.51
2022-10-03T11:33:04.323Z,18.39
2022-10-03T11:36:20.031Z,18.70
2022-10-03T11:39:02.394Z,18.89
2022-10-03T11:41:47.639Z,19.06
2022-10-03T11:44:36.367Z,19.03
2022-10-03T11:47:41.607Z,18.94
2022-10-03T11:50:38.826Z,19.08
2022-10-03T11:53:08.390Z,19.39
2022-10-03T11:55:46.839Z,19.38
2022-10-03T11:58:25.679Z,19.45
2022-10-03T12:01:18.012Z,19.33
2022-10-03T12:04:26.357Z,19.18
2022-10-03T12:07:19.457Z,19.13
2022-10-03T12:10:03.154Z,19.18
2022-10-03T12:12:52.134Z,19.17
2022-10-03T12:15:24.595Z,19.11
2022-10-03T12:18:03.127Z,19.13
2022-10-03T12:20:56.039Z,19.03
2022-10-03T12:23:44.107Z,19.12
2022-10-03T12:26:17.596Z,19.10
2022-10-03T12:28:51.393Z,19.07
2022-10-03T12:31:36.153Z,18.86
2022-10-03T12:34:22.366Z,19.10
2022-10-03T12:36:53.264Z,19.15
2022-10-03T12:39:45.054Z,19.19
2022-10-03T12:42:28.727Z,19.19
2022-10-03T12:45:16.594Z,19.13
2022-10-03T12:47:56.340Z,19.02
2022-10-03T12:50:26.673Z,18.94
2022-10-03T12:53:04.906Z,19.01
2022-10-03T12:55:35.743Z,19.05
2022-10-03T12:58:34.494Z,18.94
2022-10-03T13:01:35.193Z,19.14
2022-10-03T13:04:18.447Z,19.24
2022-10-03T13:07:22.804Z,19.26
2022-10-03T13:10:01.615Z,19.42
2022-10-03T13:12:54.821Z,19.32
2022-10-03T13:16:04.225Z,19.15
2022-10-03T13:18:45.795Z,18.97
2022-10-03T13:21:45.455Z,18.88
2022-10-03T13:24:15.378Z,18.85
2022-10-03T13:27:00.289Z,19.03
2022-10-03T13:29:33.065Z,19.21
2022-10-03T13:32:18.446Z,19.36
2022-10-03T13:35:25.438Z,19.36
2022-10-03T13:38:17.980Z,19.17
2022-10-03T13:40:51.966Z,19.07
2022-10-03T13:43:25.484Z,19.01
2022-10-03T13:45:56.962Z,18.85
2022-10-03T13:48:27.566Z,18.73
2022-10-03T13:51:05.492Z,18.63
2022-10-03T13:53:50.588Z,18.51
2022-10-03T13:56:27.674Z,18.35
2022-10-03T13:58:54.064Z,18.34
2022-10-03T14:01:42.844Z,18.32
2022-10-03T14:04:44.620Z,18.32
2022-10-03T14:07:45.524Z,18.25
2022-10-03T14:10:30.297Z,18.26
2022-10-03T14:13:20.580Z,18.34
2022-10-03T14:15:58.845Z,18.21
2022-10-03T14:18:48.060Z,18.22
2022-10-03T14:21:35.885Z,18.18
2022-10-03T14:24:05.312Z,18.17
2022-10-03T14:26:49.814Z,17.96
2022-10-03T14:29:26.669Z,17.84
2022-10-03T14:32:46.930Z,17.80
2022-10-03T14:35:38.157Z,17.74
2022-10-03T14:38:15.160Z,17.72
2022-10-03T14:40:49.477Z,17.69
2022-10-03T14:43:45.999Z,17.68
2022-10-03T14:46:15.337Z,17.67
2022-10-03T14:48:46.469Z,17.63
2022-10-03T14:51:34.873Z,17.64
2022-10-03T14:54:16.261Z,17.55
2022-10-03T14:56:46.386Z,17.36
2022-10-03T14:59:20.383Z,17.34
2022-10-03T15:01:53.629Z,17.39
2022-10-03T15:04:28.627Z,17.42
2022-10-03T15:06:57.383Z,17.49
2022-10-03T15:09:40.012Z,17.58
2022-10-03T15:12:15.051Z,17.57
2022-10-03T15:14:46.785Z,17.50
2022-10-03T15:17:26.539Z,17.49
2022-10-03T15:19:55.997Z,17.51
2022-10-03T15:22:33.762Z,17.53
2022-10-03T15:29:37.507Z,17.28
2022-10-03T15:36:01.328Z,16.88
2022-10-03T15:38:38.896Z,16.81
2022-10-03T15:41:05.969Z,16.71
2022-10-03T15:43:35.339Z,16.63
2022-10-03T15:47:01.229Z,16.53
2022-10-03T15:49:32.523Z,16.57
2022-10-03T15:55:42.151Z,16.60
2022-10-03T15:58:17.865Z,16.54
2022-10-03T16:00:54.694Z,16.47
2022-10-03T16:03:29.821Z,16.42
2022-10-03T16:06:05.430Z,16.36
2022-10-03T16:08:36.195Z,16.33
2022-10-03T16:14:43.384Z,16.34
2022-10-03T16:17:21.908Z,16.29
2022-10-03T16:19:56.886Z,16.27
2022-10-03T16:22:36.262Z,16.20
2022-10-03T16:25:20.634Z,16.09
2022-10-03T16:27:56.397Z,15.92
2022-10-03T16:30:32.269Z,15.79
2022-10-03T16:33:11.959Z,15.61
2022-10-03T16:35:44.622Z,15.47
2022-10-03T16:38:25.000Z,15.35
2022-10-03T16:41:31.806Z,15.21
2022-10-03T16:44:01.574Z,15.08
2022-10-03T16:46:34.115Z,14.95
2022-10-03T16:49:22.134Z,14.84
2022-10-03T16:52:01.579Z,14.74
2022-10-03T16:54:31.741Z,14.61
2022-10-03T16:57:01.102Z,14.48
2022-10-03T16:59:30.586Z,14.38
2022-10-03T17:02:28.557Z,14.25
2022-10-03T17:05:03.637Z,14.08
2022-10-03T17:07:47.046Z,13.99
2022-10-03T17:10:44.404Z,13.93
2022-10-03T17:13:16.294Z,13.85
2022-10-03T17:16:00.381Z,13.75
2022-10-03T17:18:41.866Z,13.66
2022-10-03T17:21:26.487Z,13.62
2022-10-03T17:24:13.697Z,13.60
2022-10-03T17:26:46.578Z,13.55
2022-10-03T17:29:21.187Z,13.47
2022-10-03T17:32:12.074Z,13.44
2022-10-03T17:34:43.483Z,13.36
2022-10-03T17:37:47.456Z,13.29
2022-10-03T17:40:38.083Z,13.21
2022-10-03T17:43:17.420Z,13.10
2022-10-03T17:45:46.954Z,13.03
2022-10-03T17:48:25.129Z,12.95
2022-10-03T17:50:58.929Z,12.85
2022-10-03T17:53:36.539Z,12.78
2022-10-03T17:56:21.054Z,12.71
2022-10-03T17:58:55.871Z,12.64
2022-10-03T18:01:34.058Z,12.57
2022-10-03T18:04:07.298Z,12.53
2022-10-03T18:06:45.510Z,12.50
2022-10-03T18:09:14.885Z,12.45
2022-10-03T18:11:43.325Z,12.39
2022-10-03T18:42:13.052Z,11.87
2022-10-03T18:44:45.034Z,11.83
2022-10-03T18:47:33.500Z,11.79
2022-10-03T18:50:02.764Z,11.73
2022-10-03T18:52:44.310Z,11.73
2022-10-03T18:57:52.418Z,11.70
2022-10-03T19:00:22.373Z,11.69
2022-10-03T19:03:15.222Z,11.67
2022-10-03T19:05:51.164Z,11.67
2022-10-03T19:08:29.958Z,11.65
2022-10-03T19:11:33.813Z,11.65
2022-10-03T19:14:15.150Z,11.64
2022-10-03T19:16:49.089Z,11.63
2022-10-03T19:19:58.984Z,11.63
2022-10-03T19:22:33.084Z,11.62
2022-10-03T19:25:05.261Z,11.61
2022-10-03T19:31:35.531Z,11.61
2022-10-03T19:34:15.582Z,11.60
2022-10-03T19:36:42.482Z,11.58
2022-10-03T19:39:14.865Z,11.58
2022-10-03T19:42:16.248Z,11.55
2022-10-03T19:44:42.856Z,11.56
2022-10-03T19:47:20.246Z,11.60
2022-10-03T19:49:59.264Z,11.61
2022-10-03T19:52:32.250Z,11.58
2022-10-03T19:55:00.967Z,11.57
2022-10-03T19:57:37.910Z,11.56
2022-10-03T20:00:19.425Z,11.54
2022-10-03T20:02:53.058Z,11.53
2022-10-03T20:05:24.582Z,11.52
2022-10-03T20:08:00.800Z,11.52
2022-10-03T20:10:41.407Z,11.48
2022-10-03T20:13:09.904Z,11.45
2022-10-03T20:15:48.169Z,11.45
2022-10-03T20:18:36.138Z,11.44
2022-10-03T20:21:10.893Z,11.43
2022-10-03T20:23:41.933Z,11.44
2022-10-03T20:26:21.461Z,11.43
2022-10-03T20:29:09.466Z,11.31
2022-10-03T20:31:37.984Z,11.24
2022-10-03T20:34:12.400Z,11.23
2022-10-03T20:36:44.292Z,11.19
2022-10-03T20:39:44.359Z,11.16
2022-10-03T20:42:17.832Z,11.14
2022-10-03T20:44:55.441Z,11.13
2022-10-03T20:47:50.041Z,11.07
2022-10-03T20:50:45.805Z,11.04
2022-10-03T20:53:25.825Z,11.02
2022-10-03T20:56:11.390Z,11.06
2022-10-03T20:58:52.121Z,11.02
2022-10-03T21:01:23.265Z,10.98
2022-10-03T21:04:37.876Z,10.97
2022-10-03T21:07:31.339Z,10.98
2022-10-03T21:10:23.178Z,10.96
2022-10-03T21:13:00.720Z,10.95
2022-10-03T21:15:50.635Z,10.91
2022-10-03T21:18:22.539Z,10.89
2022-10-03T21:21:06.267Z,10.88
2022-10-03T21:23:38.506Z,10.85
2022-10-03T21:26:07.865Z,10.78
2022-10-03T21:28:36.633Z,10.77
2022-10-03T21:31:21.813Z,10.78
2022-10-03T21:34:20.877Z,10.74
2022-10-03T21:37:02.786Z,10.72
2022-10-03T21:39:44.785Z,10.73
2022-10-03T21:42:35.200Z,10.73
2022-10-03T21:45:48.231Z,10.75
2022-10-03T21:48:44.827Z,10.75
2022-10-03T21:51:46.596Z,10.77
2022-10-03T21:54:19.048Z,10.75
2022-10-03T21:56:57.420Z,10.75
2022-10-03T21:59:48.338Z,10.77
2022-10-03T22:02:26.967Z,10.77
2022-10-03T22:05:00.311Z,10.75
2022-10-03T22:07:36.304Z,10.75
2022-10-03T22:10:09.194Z,10.75
2022-10-03T22:12:42.947Z,10.75
2022-10-03T22:15:12.063Z,10.80
2022-10-03T22:17:41.190Z,10.82
2022-10-03T22:20:20.095Z,10.82
2022-10-03T22:23:16.235Z,10.82
2022-10-03T22:26:10.546Z,10.80
2022-10-03T22:28:52.653Z,10.80
2022-10-03T22:31:58.781Z,10.77
2022-10-03T22:34:55.953Z,10.76
2022-10-03T22:37:23.313Z,10.74
2022-10-03T22:39:50.996Z,10.78
2022-10-03T22:42:18.822Z,10.81
2022-10-03T22:44:49.683Z,10.82
2022-10-03T22:47:29.874Z,10.83
2022-10-03T22:50:02.119Z,10.82
2022-10-03T22:52:34.048Z,10.80
2022-10-03T22:55:03.133Z,10.80
2022-10-03T22:57:35.052Z,10.82
2022-10-03T23:00:08.741Z,10.79
2022-10-03T23:02:42.131Z,10.80
2022-10-03T23:05:15.830Z,10.83
2022-10-03T23:08:01.038Z,10.82
2022-10-03T23:10:42.827Z,10.85
2022-10-03T23:13:44.419Z,10.84
2022-10-03T23:16:48.066Z,10.83
2022-10-03T23:19:45.441Z,10.84
2022-10-03T23:22:18.548Z,10.85
2022-10-03T23:24:52.974Z,10.85
2022-10-03T23:27:34.431Z,10.85
2022-10-03T23:30:33.105Z,10.85
2022-10-03T23:33:00.511Z,10.86
2022-10-03T23:35:43.263Z,10.86
2022-10-03T23:38:31.639Z,10.86
2022-10-03T23:41:02.890Z,10.87
2022-10-03T23:43:47.314Z,10.86
2022-10-03T23:46:18.740Z,10.88
2022-10-03T23:48:49.543Z,10.89
2022-10-03T23:51:21.163Z,10.87
2022-10-03T23:53:51.541Z,10.84
2022-10-03T23:56:44.589Z,10.82
2022-10-03T23:59:14.078Z,10.83
